createdAt,value
2022-12-23T00:01:28.511Z,22.05
2022-12-23T00:03:59.530Z,22.40
2022-12-23T00:06:27.456Z,19.85
2022-12-23T00:09:00.261Z,22.23
2022-12-23T00:11:27.794Z,23.88
2022-12-23T00:14:20.442Z,22.85
2022-12-23T00:19:15.097Z,23.48
2022-12-23T00:21:41.929Z,19.90
2022-12-23T00:24:08.746Z,22.60
2022-12-23T00:26:35.584Z,22.63
2022-12-23T00:29:02.357Z,21.50
2022-12-23T00:31:29.167Z,20.67
2022-12-23T00:33:55.991Z,22.48
2022-12-23T00:36:25.661Z,22.55
2022-12-23T00:39:10.875Z,22.23
2022-12-23T00:41:57.417Z,22.45
2022-12-23T00:44:24.918Z,22.70
2022-12-23T00:46:52.023Z,20.95
2022-12-23T00:49:39.327Z,21.80
2022-12-23T00:52:10.023Z,21.27
2022-12-23T00:54:36.924Z,21.00
2022-12-23T00:57:03.979Z,22.80
2022-12-23T00:59:30.809Z,20.92
2022-12-23T01:02:16.231Z,19.95
2022-12-23T01:05:01.581Z,19.25
2022-12-23T01:07:28.393Z,22.10
2022-12-23T01:09:55.184Z,22.80
2022-12-23T01:12:22.014Z,22.08
2022-12-23T01:14:49.074Z,21.42
2022-12-23T01:17:16.119Z,20.92
2022-12-23T01:19:42.971Z,22.08
2022-12-23T01:22:09.745Z,21.35
2022-12-23T01:24:36.536Z,21.58
2022-12-23T01:27:03.528Z,20.42
2022-12-23T01:29:30.274Z,21.58
2022-12-23T01:31:57.213Z,20.92
2022-12-23T01:34:24.101Z,24.98
2022-12-23T01:36:50.965Z,25.67
2022-12-23T01:39:17.750Z,25.50
2022-12-23T01:42:03.122Z,27.00
2022-12-23T01:45:00.718Z,27.67
2022-12-23T01:47:40.769Z,24.45
2022-12-23T01:50:10.554Z,21.38
2022-12-23T01:52:54.011Z,22.65
2022-12-23T01:55:26.206Z,23.65
2022-12-23T01:57:59.021Z,24.03
2022-12-23T02:00:44.342Z,24.30
2022-12-23T02:03:29.969Z,23.00
2022-12-23T02:06:18.396Z,24.50
2022-12-23T02:09:03.563Z,26.80
2022-12-23T02:11:33.120Z,29.55
2022-12-23T02:14:43.190Z,27.63
2022-12-23T02:17:21.511Z,30.45
2022-12-23T02:20:21.242Z,30.33
2022-12-23T02:23:05.843Z,30.17
2022-12-23T02:26:10.216Z,31.73
2022-12-23T02:28:42.852Z,29.25
2022-12-23T02:31:18.542Z,30.40
2022-12-23T02:33:56.501Z,29.10
2022-12-23T02:36:29.493Z,29.75
2022-12-23T02:39:05.142Z,31.23
2022-12-23T02:41:47.568Z,28.77
2022-12-23T02:44:26.247Z,31.80
2022-12-23T02:47:08.553Z,28.98
2022-12-23T02:49:39.809Z,27.42
2022-12-23T02:52:13.258Z,25.33
2022-12-23T02:54:53.606Z,25.85
2022-12-23T02:57:29.340Z,24.35
2022-12-23T02:59:57.757Z,24.23
2022-12-23T03:02:24.721Z,23.30
2022-12-23T03:04:51.533Z,22.27
2022-12-23T03:07:21.095Z,22.42
2022-12-23T03:10:05.093Z,22.38
2022-12-23T03:12:57.014Z,17.63
2022-12-23T03:15:38.775Z,19.70
2022-12-23T03:18:22.091Z,19.33
2022-12-23T03:21:03.483Z,18.83
2022-12-23T03:23:35.562Z,17.48
2022-12-23T03:26:03.806Z,18.50
2022-12-23T03:28:43.413Z,18.48
2022-12-23T03:31:14.998Z,18.42
2022-12-23T03:33:46.557Z,17.73
2022-12-23T03:36:22.514Z,17.13
2022-12-23T03:38:51.429Z,18.17
2022-12-23T03:41:23.902Z,18.73
2022-12-23T03:44:00.541Z,17.35
2022-12-23T03:46:37.791Z,16.40
2022-12-23T03:49:10.535Z,16.95
2022-12-23T03:52:01.676Z,16.08
2022-12-23T03:54:33.841Z,16.63
2022-12-23T03:57:05.585Z,15.50
2022-12-23T03:59:35.360Z,15.65
2022-12-23T04:02:16.479Z,15.38
2022-12-23T04:04:53.429Z,15.30
2022-12-23T04:07:29.369Z,13.85
2022-12-23T04:09:57.483Z,15.48
2022-12-23T04:12:26.257Z,16.60
2022-12-23T04:14:53.386Z,15.95
2022-12-23T04:17:20.483Z,16.10
2022-12-23T04:19:47.476Z,15.00
2022-12-23T04:22:15.403Z,15.15
2022-12-23T04:24:42.972Z,13.68
2022-12-23T04:27:14.869Z,14.80
2022-12-23T04:29:42.634Z,14.90
2022-12-23T04:32:09.925Z,16.50
2022-12-23T04:34:36.806Z,15.93
2022-12-23T04:37:03.604Z,14.85
2022-12-23T04:39:30.424Z,16.73
2022-12-23T04:41:57.180Z,15.63
2022-12-23T04:44:23.980Z,13.80
2022-12-23T04:46:50.799Z,17.25
2022-12-23T04:49:19.154Z,17.70
2022-12-23T04:51:45.969Z,15.15
2022-12-23T04:54:12.719Z,16.98
2022-12-23T04:56:39.451Z,14.40
2022-12-23T04:59:06.205Z,13.38
2022-12-23T05:01:33.059Z,15.02
2022-12-23T05:03:59.908Z,14.52
2022-12-23T05:06:26.881Z,15.45
2022-12-23T05:08:53.834Z,15.82
2022-12-23T05:11:20.560Z,16.00
2022-12-23T05:13:47.304Z,13.43
2022-12-23T05:16:14.114Z,11.68
2022-12-23T05:18:40.932Z,4.85
2022-12-23T05:21:07.666Z,4.05
2022-12-23T05:23:34.452Z,3.42
2022-12-23T05:26:01.267Z,5.38
2022-12-23T05:28:28.024Z,3.75
2022-12-23T05:31:02.583Z,3.78
2022-12-23T05:33:30.198Z,3.90
2022-12-23T05:35:57.783Z,3.75
2022-12-23T05:38:25.040Z,4.47
2022-12-23T05:40:52.249Z,4.35
2022-12-23T05:43:19.598Z,4.30
2022-12-23T05:45:46.948Z,4.65
2022-12-23T05:48:13.813Z,5.07
2022-12-23T05:50:40.830Z,5.25
2022-12-23T05:53:08.401Z,5.53
2022-12-23T05:55:35.785Z,8.00
2022-12-23T05:58:02.659Z,6.38
2022-12-23T06:00:29.652Z,8.27
2022-12-23T06:02:56.525Z,8.02
2022-12-23T06:05:23.425Z,8.43
2022-12-23T06:07:50.544Z,8.68
2022-12-23T06:10:17.715Z,8.55
2022-12-23T06:12:44.484Z,7.75
2022-12-23T06:15:12.093Z,8.70
2022-12-23T06:17:39.084Z,8.90
2022-12-23T06:20:06.610Z,9.25
2022-12-23T06:22:33.834Z,10.02
2022-12-23T06:25:00.569Z,10.82
2022-12-23T06:27:27.363Z,12.55
2022-12-23T06:29:54.207Z,11.18
2022-12-23T06:32:21.039Z,10.25
2022-12-23T06:34:49.801Z,11.10
2022-12-23T06:37:16.600Z,12.68
2022-12-23T06:39:43.346Z,13.43
2022-12-23T06:42:10.125Z,13.85
2022-12-23T06:44:36.838Z,13.57
2022-12-23T06:47:04.001Z,17.45
2022-12-23T06:49:31.179Z,15.98
2022-12-23T06:51:57.913Z,17.50
2022-12-23T06:54:24.779Z,18.50
2022-12-23T06:56:51.512Z,18.58
2022-12-23T06:59:18.309Z,23.73
2022-12-23T07:01:45.170Z,26.42
2022-12-23T07:04:12.015Z,24.48
2022-12-23T07:06:39.557Z,29.15
2022-12-23T07:09:07.405Z,28.75
2022-12-23T07:11:34.758Z,35.17
2022-12-23T07:14:01.610Z,35.72
2022-12-23T07:16:28.381Z,34.08
2022-12-23T07:18:55.264Z,40.83
2022-12-23T07:21:28.889Z,38.25
2022-12-23T07:23:56.506Z,36.50
2022-12-23T07:26:23.252Z,41.58
2022-12-23T07:28:50.011Z,43.20
2022-12-23T07:31:17.051Z,47.45
2022-12-23T07:33:44.015Z,41.00
2022-12-23T07:36:10.932Z,47.38
2022-12-23T07:38:37.744Z,44.08
2022-12-23T07:41:04.698Z,46.80
2022-12-23T07:43:31.440Z,42.80
2022-12-23T07:46:00.774Z,43.40
2022-12-23T07:48:28.256Z,47.28
2022-12-23T07:51:01.826Z,42.63
2022-12-23T07:53:28.997Z,48.60
2022-12-23T07:55:56.788Z,44.78
2022-12-23T07:58:24.501Z,32.28
2022-12-23T08:00:51.687Z,35.03
2022-12-23T08:03:18.524Z,28.17
2022-12-23T08:05:45.497Z,28.75
2022-12-23T08:08:12.674Z,24.23
2022-12-23T08:10:47.678Z,24.27
2022-12-23T08:13:15.152Z,21.45
2022-12-23T08:15:41.969Z,26.95
2022-12-23T08:18:08.650Z,22.65
2022-12-23T08:20:35.416Z,26.10
2022-12-23T08:23:02.178Z,24.70
2022-12-23T08:25:28.944Z,25.88
2022-12-23T08:27:55.702Z,21.13
2022-12-23T08:30:22.552Z,22.52
2022-12-23T08:32:49.298Z,21.35
2022-12-23T08:35:16.151Z,24.70
2022-12-23T08:37:42.955Z,26.27
2022-12-23T08:40:10.068Z,25.95
2022-12-23T08:42:36.808Z,25.40
2022-12-23T08:45:03.824Z,21.13
2022-12-23T08:47:30.601Z,21.45
2022-12-23T08:49:57.801Z,23.05
2022-12-23T08:52:24.610Z,24.50
2022-12-23T08:54:51.431Z,20.45
2022-12-23T08:57:18.175Z,21.23
2022-12-23T08:59:45.029Z,20.20
2022-12-23T09:02:12.184Z,22.52
2022-12-23T09:04:39.131Z,26.50
2022-12-23T09:07:06.088Z,23.50
2022-12-23T09:09:33.007Z,20.88
2022-12-23T09:11:59.786Z,21.80
2022-12-23T09:14:29.629Z,24.27
2022-12-23T09:16:56.398Z,25.85
2022-12-23T09:19:23.213Z,25.30
2022-12-23T09:21:50.030Z,25.50
2022-12-23T09:24:16.900Z,23.13
2022-12-23T09:26:43.837Z,23.63
2022-12-23T09:29:10.661Z,28.08
2022-12-23T09:31:38.166Z,28.50
2022-12-23T09:34:06.014Z,28.42
2022-12-23T09:36:32.791Z,28.08
2022-12-23T09:38:59.631Z,28.63
2022-12-23T09:41:47.497Z,27.95
2022-12-23T09:44:47.452Z,29.58
2022-12-23T09:47:20.859Z,37.05
2022-12-23T09:49:52.602Z,27.98
2022-12-23T09:52:33.386Z,27.33
2022-12-23T09:55:00.739Z,26.02
2022-12-23T09:57:39.373Z,25.27
2022-12-23T10:00:15.611Z,29.45
2022-12-23T10:03:04.433Z,26.40
2022-12-23T10:05:57.054Z,28.13
2022-12-23T10:08:43.184Z,26.40
2022-12-23T10:11:15.316Z,25.05
2022-12-23T10:13:53.156Z,25.20
2022-12-23T10:16:23.920Z,25.10
2022-12-23T10:18:53.733Z,23.83
2022-12-23T10:21:26.275Z,24.05
2022-12-23T10:23:54.859Z,24.90
2022-12-23T10:26:31.336Z,25.90
2022-12-23T10:29:23.187Z,24.90
2022-12-23T10:31:59.283Z,25.20
2022-12-23T10:34:38.116Z,26.60
2022-12-23T10:37:14.857Z,24.73
2022-12-23T10:40:18.890Z,25.02
2022-12-23T10:43:14.327Z,24.23
2022-12-23T10:46:11.832Z,25.65
2022-12-23T10:48:57.303Z,24.13
2022-12-23T10:51:30.354Z,23.38
2022-12-23T10:56:29.946Z,21.88
2022-12-23T10:58:59.328Z,20.83
2022-12-23T11:01:27.923Z,19.92
2022-12-23T11:04:13.717Z,19.80
2022-12-23T11:07:10.808Z,21.58
2022-12-23T11:09:44.561Z,21.15
2022-12-23T11:12:12.672Z,20.90
2022-12-23T11:14:43.064Z,21.92
2022-12-23T11:17:31.523Z,20.63
2022-12-23T11:20:10.378Z,19.73
2022-12-23T11:22:48.461Z,18.17
2022-12-23T11:25:30.878Z,17.02
2022-12-23T11:28:11.127Z,17.07
2022-12-23T11:31:05.648Z,17.70
2022-12-23T11:33:36.172Z,15.82
2022-12-23T11:36:12.721Z,14.32
2022-12-23T11:39:09.718Z,15.57
2022-12-23T11:41:49.938Z,15.45
2022-12-23T11:44:39.329Z,15.95
2022-12-23T11:47:26.434Z,14.50
2022-12-23T11:49:55.965Z,15.88
2022-12-23T11:52:25.583Z,15.18
2022-12-23T11:54:55.746Z,16.27
2022-12-23T11:57:45.093Z,15.30
2022-12-23T12:00:24.755Z,16.33
2022-12-23T12:03:01.922Z,15.38
2022-12-23T12:05:38.790Z,15.45
2022-12-23T12:08:15.842Z,16.23
2022-12-23T12:10:43.560Z,14.57
2022-12-23T12:13:43.620Z,16.67
2022-12-23T12:16:28.532Z,17.63
2022-12-23T12:19:01.713Z,17.77
2022-12-23T12:21:35.769Z,18.23
2022-12-23T12:24:18.839Z,16.88
2022-12-23T12:26:51.254Z,14.98
2022-12-23T12:29:28.790Z,14.70
2022-12-23T12:31:58.547Z,14.35
2022-12-23T12:34:52.218Z,15.55
2022-12-23T12:37:34.847Z,16.17
2022-12-23T12:40:21.122Z,14.65
2022-12-23T12:42:54.609Z,18.35
2022-12-23T12:45:25.061Z,15.80
2022-12-23T12:48:30.113Z,16.60
2022-12-23T12:51:26.234Z,17.27
2022-12-23T12:54:05.244Z,17.88
2022-12-23T12:56:41.839Z,18.60
2022-12-23T12:59:20.325Z,18.17
2022-12-23T13:01:47.205Z,18.40
2022-12-23T13:04:38.326Z,18.85
2022-12-23T13:07:12.783Z,19.40
2022-12-23T13:10:10.517Z,19.38
2022-12-23T13:12:48.325Z,21.38
2022-12-23T13:15:23.561Z,20.98
2022-12-23T13:18:12.083Z,21.80
2022-12-23T13:21:05.591Z,22.27
2022-12-23T13:26:37.390Z,26.10
2022-12-23T13:29:35.075Z,24.90
2022-12-23T13:32:14.953Z,26.27
2022-12-23T13:34:59.834Z,26.60
2022-12-23T13:37:43.188Z,25.95
2022-12-23T13:42:43.528Z,25.70
2022-12-23T13:45:19.058Z,25.77
2022-12-23T13:48:05.447Z,26.17
2022-12-23T13:50:44.435Z,27.13
2022-12-23T13:53:25.589Z,26.63
2022-12-23T13:56:00.547Z,26.13
2022-12-23T13:58:31.243Z,27.83
2022-12-23T14:01:08.943Z,26.08
2022-12-23T14:03:38.508Z,27.45
2022-12-23T14:06:21.103Z,27.90
2022-12-23T14:08:48.755Z,32.38
2022-12-23T14:11:30.935Z,31.52
2022-12-23T14:14:03.645Z,31.70
2022-12-23T14:16:52.112Z,38.50
2022-12-23T14:19:18.827Z,30.50
2022-12-23T14:22:09.998Z,32.60
2022-12-23T14:24:55.364Z,29.38
2022-12-23T14:27:43.437Z,33.42
2022-12-23T14:30:35.986Z,36.38
2022-12-23T14:33:23.103Z,32.00
2022-12-23T14:36:13.245Z,32.22
2022-12-23T14:38:40.570Z,35.28
2022-12-23T14:41:23.727Z,49.83
2022-12-23T14:43:55.920Z,40.33
2022-12-23T14:46:35.057Z,35.28
2022-12-23T14:49:29.698Z,35.80
2022-12-23T14:51:51.091Z,34.75
2022-12-23T14:54:36.610Z,41.53
2022-12-23T14:57:15.763Z,46.30
2022-12-23T15:00:01.483Z,44.03
2022-12-23T15:02:39.136Z,49.42
2022-12-23T15:05:06.983Z,41.22
2022-12-23T15:07:46.127Z,42.80
2022-12-23T15:10:25.781Z,39.97
2022-12-23T15:12:59.383Z,38.30
2022-12-23T15:15:29.373Z,40.65
2022-12-23T15:18:11.011Z,36.40
2022-12-23T15:20:38.308Z,38.60
2022-12-23T15:23:16.774Z,37.95
2022-12-23T15:25:48.875Z,39.55
2022-12-23T15:28:22.498Z,38.78
2022-12-23T15:30:56.471Z,36.03
2022-12-23T15:36:15.188Z,30.55
2022-12-23T15:38:42.300Z,29.77
2022-12-23T15:41:18.556Z,34.72
2022-12-23T15:43:45.668Z,34.20
2022-12-23T15:46:28.646Z,30.35
2022-12-23T15:48:57.172Z,31.48
2022-12-23T15:54:39.866Z,30.83
2022-12-23T15:57:06.689Z,41.35
2022-12-23T15:59:38.020Z,59.35
2022-12-23T16:05:08.670Z,34.70
2022-12-23T16:07:41.472Z,47.67
2022-12-23T16:10:15.982Z,36.05
2022-12-23T16:12:43.890Z,34.60
2022-12-23T16:15:21.885Z,35.45
2022-12-23T16:17:48.685Z,39.28
2022-12-23T16:20:25.478Z,37.90
2022-12-23T16:22:54.436Z,32.22
2022-12-23T16:25:27.609Z,34.50
2022-12-23T16:28:04.935Z,33.70
2022-12-23T16:30:42.249Z,35.95
2022-12-23T16:33:26.972Z,34.90
2022-12-23T16:35:55.766Z,35.22
2022-12-23T16:38:26.792Z,35.90
2022-12-23T16:40:55.903Z,36.90
2022-12-23T16:43:30.186Z,35.10
2022-12-23T16:46:03.541Z,42.28
2022-12-23T16:48:36.998Z,31.83
2022-12-23T16:51:07.567Z,39.78
2022-12-23T16:53:34.860Z,35.08
2022-12-23T16:56:25.368Z,33.53
2022-12-23T16:59:29.963Z,33.40
2022-12-23T17:02:03.098Z,32.60
2022-12-23T17:04:30.377Z,33.70
2022-12-23T17:06:57.173Z,35.13
2022-12-23T17:09:23.975Z,34.58
2022-12-23T17:11:53.472Z,31.05
2022-12-23T17:14:23.330Z,31.60
2022-12-23T17:16:51.038Z,45.85
2022-12-23T17:19:25.231Z,36.63
2022-12-23T17:21:58.579Z,32.22
2022-12-23T17:24:26.901Z,35.30
2022-12-23T17:26:55.220Z,32.08
2022-12-23T17:29:22.048Z,29.95
2022-12-23T17:31:50.016Z,30.13
2022-12-23T17:34:20.406Z,29.67
2022-12-23T17:36:50.344Z,30.23
2022-12-23T17:39:18.796Z,32.25
2022-12-23T17:41:46.125Z,33.55
2022-12-23T17:44:17.209Z,31.40
2022-12-23T17:46:45.366Z,30.30
2022-12-23T17:49:12.327Z,36.90
2022-12-23T17:51:40.460Z,39.03
2022-12-23T17:54:07.503Z,33.83
2022-12-23T17:56:34.366Z,31.77
2022-12-23T17:59:01.291Z,36.55
2022-12-23T18:01:30.429Z,37.78
2022-12-23T18:03:58.671Z,34.08
2022-12-23T18:06:27.790Z,29.35
2022-12-23T18:08:55.351Z,31.13
2022-12-23T18:11:30.798Z,32.60
2022-12-23T18:13:57.971Z,30.42
2022-12-23T18:16:24.982Z,29.30
2022-12-23T18:18:52.922Z,33.28
2022-12-23T18:21:28.836Z,30.35
2022-12-23T18:23:58.762Z,28.92
2022-12-23T18:26:25.927Z,31.55
2022-12-23T18:31:52.264Z,30.13
2022-12-23T18:34:20.414Z,32.25
2022-12-23T18:36:48.483Z,31.35
2022-12-23T18:39:15.649Z,36.25
2022-12-23T18:41:42.488Z,32.22
2022-12-23T18:44:18.364Z,33.75
2022-12-23T18:46:45.297Z,34.40
2022-12-23T18:49:12.141Z,29.00
2022-12-23T18:51:38.929Z,32.42
2022-12-23T18:54:05.880Z,35.63
2022-12-23T18:56:32.797Z,28.95
2022-12-23T18:58:59.637Z,37.20
2022-12-23T19:01:26.536Z,32.30
2022-12-23T19:03:53.318Z,34.35
2022-12-23T19:06:20.120Z,35.75
2022-12-23T19:08:46.911Z,42.00
2022-12-23T19:11:17.117Z,44.95
2022-12-23T19:13:44.555Z,52.88
2022-12-23T19:16:15.371Z,50.42
2022-12-23T19:18:42.499Z,48.88
2022-12-23T19:21:09.517Z,53.80
2022-12-23T19:23:37.056Z,44.05
2022-12-23T19:26:06.175Z,37.65
2022-12-23T19:28:33.714Z,42.88
2022-12-23T19:31:00.692Z,38.72
2022-12-23T19:33:27.601Z,47.20
2022-12-23T19:35:54.393Z,46.08
2022-12-23T19:38:21.224Z,44.30
2022-12-23T19:40:57.553Z,39.83
2022-12-23T19:43:37.575Z,59.47
2022-12-23T19:46:07.453Z,43.00
2022-12-23T19:51:15.574Z,33.05
2022-12-23T19:53:42.813Z,27.52
2022-12-23T19:56:15.023Z,29.35
2022-12-23T19:58:43.789Z,25.73
2022-12-23T20:01:28.815Z,24.27
2022-12-23T20:04:05.062Z,25.05
2022-12-23T20:06:34.376Z,23.58
2022-12-23T20:09:04.392Z,23.73
2022-12-23T20:11:37.452Z,21.67
2022-12-23T20:16:31.995Z,96.20
2022-12-23T20:18:58.960Z,29.20
2022-12-23T20:21:25.766Z,21.00
2022-12-23T20:23:53.092Z,34.78
2022-12-23T20:26:20.597Z,20.35
2022-12-23T20:28:47.522Z,21.63
2022-12-23T20:31:25.510Z,25.00
2022-12-23T20:33:53.789Z,21.67
2022-12-23T20:36:26.898Z,22.63
2022-12-23T20:41:24.050Z,21.02
2022-12-23T20:44:23.394Z,25.40
2022-12-23T20:46:38.547Z,23.13
2022-12-23T20:49:05.424Z,22.50
2022-12-23T20:51:32.310Z,26.83
2022-12-23T20:54:00.044Z,23.58
2022-12-23T20:56:29.431Z,24.13
2022-12-23T20:59:02.312Z,22.65
2022-12-23T21:01:40.099Z,24.67
2022-12-23T21:04:09.468Z,25.08
2022-12-23T21:06:36.933Z,33.22
2022-12-23T21:09:05.906Z,27.65
2022-12-23T21:11:35.057Z,28.27
2022-12-23T21:14:06.438Z,29.63
2022-12-23T21:16:35.399Z,26.98
2022-12-23T21:19:02.435Z,30.95
2022-12-23T21:21:31.762Z,27.83
2022-12-23T21:24:01.435Z,31.52
2022-12-23T21:26:30.081Z,28.90
2022-12-23T21:28:59.487Z,30.52
2022-12-23T21:31:27.613Z,32.03
2022-12-23T21:33:55.260Z,33.30
2022-12-23T21:36:25.030Z,30.10
2022-12-23T21:38:52.460Z,33.80
2022-12-23T21:41:24.990Z,30.20
2022-12-23T21:43:52.162Z,26.20
2022-12-23T21:46:21.952Z,28.58
2022-12-23T21:48:49.764Z,29.52
2022-12-23T21:51:22.682Z,37.33
2022-12-23T21:53:51.611Z,34.63
2022-12-23T21:56:24.940Z,31.50
2022-12-23T21:58:56.807Z,32.08
2022-12-23T22:01:23.983Z,29.67
2022-12-23T22:03:51.678Z,31.88
2022-12-23T22:06:21.167Z,26.25
2022-12-23T22:08:48.847Z,31.02
2022-12-23T22:11:21.639Z,34.05
2022-12-23T22:13:48.679Z,28.70
2022-12-23T22:16:21.316Z,31.65
2022-12-23T22:18:49.344Z,30.40
2022-12-23T22:21:21.782Z,30.48
2022-12-23T22:23:49.462Z,30.95
2022-12-23T22:26:26.177Z,29.88
2022-12-23T22:28:55.652Z,33.00
2022-12-23T22:31:50.128Z,34.38
2022-12-23T22:34:22.138Z,31.02
2022-12-23T22:36:49.770Z,38.03
2022-12-23T22:39:21.194Z,38.60
2022-12-23T22:41:52.062Z,33.67
2022-12-23T22:44:19.784Z,36.80
2022-12-23T22:46:46.893Z,34.83
2022-12-23T22:49:14.799Z,39.78
2022-12-23T22:51:42.739Z,39.63
2022-12-23T22:54:12.791Z,41.03
2022-12-23T22:56:39.686Z,38.00
2022-12-23T22:59:06.447Z,41.70
2022-12-23T23:01:36.154Z,41.40
2022-12-23T23:04:04.082Z,38.15
2022-12-23T23:06:33.544Z,47.75
2022-12-23T23:09:01.524Z,43.85
2022-12-23T23:11:28.809Z,45.40
2022-12-23T23:13:56.124Z,38.30
2022-12-23T23:16:24.498Z,43.67
2022-12-23T23:18:52.239Z,39.63
2022-12-23T23:21:19.276Z,37.88
2022-12-23T23:23:46.501Z,33.47
2022-12-23T23:26:14.113Z,31.67
2022-12-23T23:28:42.018Z,35.15
2022-12-23T23:31:41.044Z,32.55
2022-12-23T23:33:57.898Z,32.45
2022-12-23T23:36:25.082Z,26.05
2022-12-23T23:38:51.912Z,25.90
2022-12-23T23:41:22.841Z,25.38
2022-12-23T23:43:50.564Z,22.30
2022-12-23T23:46:17.381Z,21.23
2022-12-23T23:48:44.251Z,17.63
2022-12-23T23:51:12.446Z,17.15
2022-12-23T23:53:39.355Z,14.77
2022-12-23T23:56:07.883Z,11.13
2022-12-23T23:58:36.033Z,11.35
